F/V Adeline Stephen — FGUF — position and weather

sailwx.info

Track history (hours):
 
Tides and Currents Weather Stations Pressure Air Temp Water Temp Dewpoint Dewpoint Depression Visibility Wind Speed Wind Dir Waves Ship Positions

F/V Adeline Stephen

Last reported at 2016-Feb-04 00:17 UTC. Time now 2016-Feb-07 15:15 UTC.
Position N 47°44' W 003°22'.

Length 18 m.

Type: Fishing. MMSI: 228929000.

Date/timePositionNaut miles runAvg speedWind from/ knotsBaromVisibWave heightAir tempDewpointWater temp
2016-Feb-04 00:17N 47°44' W 003°22'0 0.0
2016-Feb-03 23:34N 47°44' W 003°22'0 0.1
2016-Feb-03 22:34N 47°44' W 003°22'5 4.9
2016-Feb-03 21:34N 47°39' W 003°21'8 7.9
2016-Feb-03 20:33N 47°32' W 003°14'7 7.4
2016-Feb-03 19:34N 47°26' W 003°09'9 7.6
2016-Feb-03 18:26N 47°18' W 003°02'18 0.4
2016-Feb-01 16:10N 47°00' W 002°59'3 1.1
2016-Feb-01 13:06N 46°57' W 002°56'15 3.3
2016-Feb-01 08:33N 47°12' W 003°02'8 8.2
2016-Feb-01 07:33N 47°20' W 003°03'9 9.2
2016-Feb-01 06:33N 47°28' W 003°11'9 8.7
2016-Feb-01 05:33N 47°35' W 003°17'8 8.2
2016-Feb-01 04:33N 47°43' W 003°22'1 0.9
2016-Feb-01 03:33N 47°44' W 003°22'0 0.0
2016-Feb-01 02:33N 47°44' W 003°22'0 0.0
2016-Feb-01 01:33N 47°44' W 003°22'0 0.1
2016-Feb-01 00:33N 47°44' W 003°22'0 0.0
2016-Jan-31 23:33N 47°44' W 003°22'5 5.4
2016-Jan-31 22:33N 47°39' W 003°20'8 7.7
2016-Jan-31 21:33N 47°32' W 003°14'7 7.2
2016-Jan-31 20:33N 47°26' W 003°08'  
2016-Jan-29 01:31N 47°04' W 002°40'8 8.4
2016-Jan-29 00:33N 47°12' W 002°37'8 8.4
2016-Jan-28 23:33N 47°20' W 002°32'1 1.1
2016-Jan-28 22:32N 47°21' W 002°31'0 0.0
2016-Jan-28 21:33N 47°21' W 002°31'0 0.0
2016-Jan-28 20:33N 47°21' W 002°31'3 2.7
2016-Jan-28 19:33N 47°19' W 002°34'8 7.9
2016-Jan-28 18:33N 47°13' W 002°42'16 1.8
2016-Jan-28 09:33N 47°05' W 003°03'8 0.2
2016-Jan-26 07:11N 47°13' W 002°57'6 8.8
2016-Jan-26 06:33N 47°18' W 003°01'9 9.1
2016-Jan-26 05:33N 47°25' W 003°08'8 8.4
2016-Jan-26 04:33N 47°32' W 003°14'  
Track history (hours):
 
Tides and Currents Weather Stations Pressure Air Temp Water Temp Dewpoint Dewpoint Depression Visibility Wind Speed Wind Dir Waves Ship Positions

F/V Adeline Stephen

Last reported at 2016-Feb-04 00:17 UTC. Time now 2016-Feb-07 15:15 UTC.
Position N 47°44' W 003°22'.

Length 18 m.

Type: Fishing. MMSI: 228929000.

Date/timePositionNaut miles runAvg speedWind from/ knotsBaromVisibWave heightAir tempDewpointWater temp
2016-Feb-04 00:17N 47°44' W 003°22'0 0.0
2016-Feb-03 23:34N 47°44' W 003°22'0 0.1
2016-Feb-03 22:34N 47°44' W 003°22'5 4.9
2016-Feb-03 21:34N 47°39' W 003°21'8 7.9
2016-Feb-03 20:33N 47°32' W 003°14'7 7.4
2016-Feb-03 19:34N 47°26' W 003°09'9 7.6
2016-Feb-03 18:26N 47°18' W 003°02'18 0.4
2016-Feb-01 16:10N 47°00' W 002°59'3 1.1
2016-Feb-01 13:06N 46°57' W 002°56'15 3.3
2016-Feb-01 08:33N 47°12' W 003°02'8 8.2
2016-Feb-01 07:33N 47°20' W 003°03'9 9.2
2016-Feb-01 06:33N 47°28' W 003°11'9 8.7
2016-Feb-01 05:33N 47°35' W 003°17'8 8.2
2016-Feb-01 04:33N 47°43' W 003°22'1 0.9
2016-Feb-01 03:33N 47°44' W 003°22'0 0.0
2016-Feb-01 02:33N 47°44' W 003°22'0 0.0
2016-Feb-01 01:33N 47°44' W 003°22'0 0.1
2016-Feb-01 00:33N 47°44' W 003°22'0 0.0
2016-Jan-31 23:33N 47°44' W 003°22'5 5.4
2016-Jan-31 22:33N 47°39' W 003°20'8 7.7
2016-Jan-31 21:33N 47°32' W 003°14'7 7.2
2016-Jan-31 20:33N 47°26' W 003°08'  
2016-Jan-29 01:31N 47°04' W 002°40'8 8.4
2016-Jan-29 00:33N 47°12' W 002°37'8 8.4
2016-Jan-28 23:33N 47°20' W 002°32'1 1.1
2016-Jan-28 22:32N 47°21' W 002°31'0 0.0
2016-Jan-28 21:33N 47°21' W 002°31'0 0.0
2016-Jan-28 20:33N 47°21' W 002°31'3 2.7
2016-Jan-28 19:33N 47°19' W 002°34'8 7.9
2016-Jan-28 18:33N 47°13' W 002°42'16 1.8
2016-Jan-28 09:33N 47°05' W 003°03'8 0.2
2016-Jan-26 07:11N 47°13' W 002°57'6 8.8
2016-Jan-26 06:33N 47°18' W 003°01'9 9.1
2016-Jan-26 05:33N 47°25' W 003°08'8 8.4
2016-Jan-26 04:33N 47°32' W 003°14'  

Dump ship's entire track history